createdAt,value
2022-10-07T00:01:14.820Z,2.28
2022-10-07T00:03:47.105Z,2.90
2022-10-07T00:06:21.166Z,2.58
2022-10-07T00:08:51.136Z,2.53
2022-10-07T00:11:22.956Z,2.40
2022-10-07T00:13:56.104Z,2.90
2022-10-07T00:16:32.646Z,2.80
2022-10-07T00:19:02.733Z,2.85
2022-10-07T00:21:33.012Z,2.67
2022-10-07T00:24:03.246Z,2.67
2022-10-07T00:26:32.490Z,3.33
2022-10-07T00:28:59.773Z,2.70
2022-10-07T00:31:29.796Z,2.80
2022-10-07T00:33:57.755Z,2.97
2022-10-07T00:36:27.964Z,2.90
2022-10-07T00:39:08.132Z,2.83
2022-10-07T00:41:38.600Z,2.80
2022-10-07T00:44:26.011Z,3.13
2022-10-07T00:46:55.341Z,2.47
2022-10-07T00:49:22.729Z,2.53
2022-10-07T00:51:52.581Z,2.22
2022-10-07T00:54:23.234Z,3.17
2022-10-07T00:56:52.767Z,2.95
2022-10-07T00:59:21.196Z,2.20
2022-10-07T01:01:48.879Z,3.13
2022-10-07T01:04:17.277Z,2.97
2022-10-07T01:06:45.806Z,3.00
2022-10-07T01:09:13.993Z,2.95
2022-10-07T01:11:55.701Z,3.33
2022-10-07T01:14:39.094Z,2.67
2022-10-07T01:17:13.592Z,2.88
2022-10-07T01:20:05.134Z,3.35
2022-10-07T01:22:41.137Z,3.47
2022-10-07T01:25:13.864Z,3.40
2022-10-07T01:27:49.098Z,2.97
2022-10-07T01:30:16.860Z,3.08
2022-10-07T01:32:59.188Z,3.20
2022-10-07T01:35:32.705Z,2.97
2022-10-07T01:40:36.043Z,3.20
2022-10-07T01:43:03.643Z,2.72
2022-10-07T01:45:32.659Z,3.10
2022-10-07T01:48:02.185Z,3.28
2022-10-07T01:50:30.069Z,3.10
2022-10-07T01:53:22.165Z,2.80
2022-10-07T01:56:14.465Z,2.88
2022-10-07T01:59:00.219Z,3.00
2022-10-07T02:01:42.145Z,3.13
2022-10-07T02:04:53.454Z,3.20
2022-10-07T02:07:43.269Z,3.00
2022-10-07T02:10:21.719Z,2.70
2022-10-07T02:13:16.452Z,2.83
2022-10-07T02:15:52.838Z,2.83
2022-10-07T02:18:21.274Z,2.83
2022-10-07T02:20:52.603Z,2.88
2022-10-07T02:23:22.056Z,3.15
2022-10-07T02:25:52.375Z,2.42
2022-10-07T02:28:24.907Z,3.15
2022-10-07T02:30:57.230Z,3.28
2022-10-07T02:33:27.704Z,2.97
2022-10-07T02:35:59.297Z,2.92
2022-10-07T02:38:29.808Z,2.58
2022-10-07T02:41:07.464Z,2.95
2022-10-07T02:44:11.029Z,2.35
2022-10-07T02:46:54.226Z,2.10
2022-10-07T02:49:26.648Z,2.22
2022-10-07T02:52:02.830Z,2.40
2022-10-07T02:54:42.753Z,2.30
2022-10-07T02:57:13.537Z,2.95
2022-10-07T02:59:41.594Z,2.72
2022-10-07T03:02:15.295Z,2.28
2022-10-07T03:04:43.383Z,2.78
2022-10-07T03:07:12.175Z,2.60
2022-10-07T03:09:40.035Z,2.70
2022-10-07T03:12:08.549Z,2.83
2022-10-07T03:14:36.360Z,2.72
2022-10-07T03:17:04.151Z,2.50
2022-10-07T03:19:31.372Z,2.60
2022-10-07T03:21:58.548Z,2.80
2022-10-07T03:24:25.745Z,3.20
2022-10-07T03:26:56.556Z,2.72
2022-10-07T03:29:26.077Z,2.72
2022-10-07T03:31:55.891Z,2.60
2022-10-07T03:34:23.174Z,2.40
2022-10-07T03:36:50.843Z,2.92
2022-10-07T03:39:17.994Z,2.70
2022-10-07T03:41:45.583Z,2.55
2022-10-07T03:44:14.523Z,2.95
2022-10-07T03:46:44.478Z,2.33
2022-10-07T03:49:11.801Z,2.88
2022-10-07T03:51:39.611Z,2.30
2022-10-07T03:54:07.304Z,3.35
2022-10-07T03:56:34.570Z,2.80
2022-10-07T03:59:02.354Z,2.45
2022-10-07T04:01:32.644Z,3.08
2022-10-07T04:04:20.199Z,2.55
2022-10-07T04:06:47.841Z,2.67
2022-10-07T04:09:15.730Z,2.47
2022-10-07T04:11:43.653Z,2.45
2022-10-07T04:14:10.875Z,2.78
2022-10-07T04:16:38.699Z,2.53
2022-10-07T04:19:06.545Z,2.55
2022-10-07T04:21:34.083Z,2.58
2022-10-07T04:24:01.323Z,2.63
2022-10-07T04:26:28.586Z,2.70
2022-10-07T04:28:55.753Z,2.53
2022-10-07T04:31:23.511Z,2.33
2022-10-07T04:33:53.569Z,2.40
2022-10-07T04:36:20.827Z,2.38
2022-10-07T04:38:51.076Z,2.70
2022-10-07T04:41:18.273Z,2.55
2022-10-07T04:43:56.678Z,2.67
2022-10-07T04:46:25.168Z,2.30
2022-10-07T04:48:54.895Z,2.58
2022-10-07T04:51:22.708Z,2.67
2022-10-07T04:53:57.119Z,2.47
2022-10-07T04:56:25.102Z,3.05
2022-10-07T04:58:52.285Z,2.45
2022-10-07T05:01:19.533Z,2.70
2022-10-07T05:03:46.815Z,2.78
2022-10-07T05:06:14.036Z,2.65
2022-10-07T05:08:43.665Z,2.60
2022-10-07T05:11:11.027Z,2.95
2022-10-07T05:13:43.824Z,2.22
2022-10-07T05:16:14.095Z,2.40
2022-10-07T05:18:44.149Z,2.60
2022-10-07T05:21:11.344Z,2.35
2022-10-07T05:23:39.114Z,2.38
2022-10-07T05:26:10.571Z,2.42
2022-10-07T05:28:41.803Z,1.98
2022-10-07T05:31:14.963Z,2.25
2022-10-07T05:33:42.805Z,1.92
2022-10-07T05:36:17.091Z,2.28
2022-10-07T05:38:44.261Z,2.92
2022-10-07T05:41:12.783Z,2.78
2022-10-07T05:43:43.417Z,2.28
2022-10-07T05:46:13.045Z,2.20
2022-10-07T05:48:43.114Z,2.78
2022-10-07T05:51:10.640Z,2.30
2022-10-07T05:53:41.306Z,2.58
2022-10-07T05:56:14.301Z,1.92
2022-10-07T05:58:41.589Z,2.83
2022-10-07T06:01:15.946Z,2.10
2022-10-07T06:03:46.609Z,1.88
2022-10-07T06:06:16.389Z,1.80
2022-10-07T06:08:47.531Z,2.35
2022-10-07T06:11:35.661Z,1.70
2022-10-07T06:14:03.225Z,2.40
2022-10-07T06:16:30.707Z,1.77
2022-10-07T06:18:58.543Z,2.00
2022-10-07T06:21:29.691Z,1.80
2022-10-07T06:23:58.439Z,1.80
2022-10-07T06:26:30.262Z,3.38
2022-10-07T06:28:57.491Z,3.90
2022-10-07T06:31:25.793Z,3.80
2022-10-07T06:33:56.210Z,3.30
2022-10-07T06:36:23.952Z,2.78
2022-10-07T06:38:55.565Z,2.72
2022-10-07T06:41:23.539Z,2.63
2022-10-07T06:43:58.343Z,2.08
2022-10-07T06:46:26.113Z,1.98
2022-10-07T06:48:53.368Z,1.80
2022-10-07T06:51:21.911Z,1.63
2022-10-07T06:53:55.009Z,2.20
2022-10-07T06:56:22.644Z,2.67
2022-10-07T06:58:50.370Z,5.43
2022-10-07T07:01:18.289Z,4.45
2022-10-07T07:03:45.546Z,4.30
2022-10-07T07:06:13.745Z,2.47
2022-10-07T07:08:45.797Z,2.22
2022-10-07T07:11:32.590Z,2.03
2022-10-07T07:14:00.331Z,1.73
2022-10-07T07:16:28.267Z,1.55
2022-10-07T07:18:58.374Z,1.88
2022-10-07T07:21:28.892Z,1.73
2022-10-07T07:23:59.501Z,1.50
2022-10-07T07:26:28.237Z,2.15
2022-10-07T07:28:59.130Z,1.60
2022-10-07T07:31:28.900Z,2.03
2022-10-07T07:33:57.633Z,1.60
2022-10-07T07:36:26.689Z,1.90
2022-10-07T07:38:58.699Z,1.58
2022-10-07T07:41:35.782Z,2.08
2022-10-07T07:44:06.068Z,1.80
2022-10-07T07:46:37.076Z,1.73
2022-10-07T07:49:05.834Z,2.10
2022-10-07T07:51:33.769Z,2.05
2022-10-07T07:54:03.534Z,1.30
2022-10-07T07:56:33.420Z,1.90
2022-10-07T07:59:04.374Z,1.58
2022-10-07T08:01:32.243Z,1.50
2022-10-07T08:04:00.962Z,1.55
2022-10-07T08:06:28.877Z,1.60
2022-10-07T08:08:59.319Z,1.80
2022-10-07T08:11:28.895Z,1.45
2022-10-07T08:13:56.565Z,1.92
2022-10-07T08:16:26.396Z,1.65
2022-10-07T08:18:57.845Z,1.63
2022-10-07T08:21:32.815Z,1.67
2022-10-07T08:24:02.831Z,1.92
2022-10-07T08:26:31.581Z,1.50
2022-10-07T08:29:00.527Z,1.65
2022-10-07T08:31:29.492Z,1.65
2022-10-07T08:33:59.305Z,1.63
2022-10-07T08:36:32.665Z,1.65
2022-10-07T08:41:41.518Z,1.42
2022-10-07T08:44:17.747Z,1.50
2022-10-07T08:47:00.185Z,1.63
2022-10-07T08:49:43.116Z,1.27
2022-10-07T08:52:28.952Z,1.40
2022-10-07T08:54:59.233Z,1.60
2022-10-07T08:57:37.239Z,1.40
2022-10-07T09:00:09.182Z,1.52
2022-10-07T09:03:07.481Z,1.27
2022-10-07T09:05:40.401Z,1.70
2022-10-07T09:08:19.023Z,1.30
2022-10-07T09:10:54.235Z,1.60
2022-10-07T09:13:36.020Z,1.52
2022-10-07T09:16:18.141Z,1.20
2022-10-07T09:18:59.252Z,1.30
2022-10-07T09:21:40.470Z,1.40
2022-10-07T09:24:28.199Z,1.30
2022-10-07T09:27:02.020Z,1.25
2022-10-07T09:29:30.986Z,1.30
2022-10-07T09:31:58.962Z,1.70
2022-10-07T09:34:29.076Z,1.05
2022-10-07T09:37:14.559Z,1.17
2022-10-07T09:39:44.149Z,1.33
2022-10-07T09:42:25.181Z,1.52
2022-10-07T09:44:57.752Z,1.23
2022-10-07T09:47:29.097Z,1.10
2022-10-07T09:49:59.785Z,1.17
2022-10-07T09:52:29.846Z,1.42
2022-10-07T09:55:20.167Z,1.10
2022-10-07T09:58:00.674Z,1.17
2022-10-07T10:00:31.091Z,1.30
2022-10-07T10:03:06.290Z,1.63
2022-10-07T10:05:57.662Z,1.17
2022-10-07T10:08:29.109Z,1.20
2022-10-07T10:11:19.304Z,1.20
2022-10-07T10:13:53.511Z,1.13
2022-10-07T10:16:35.961Z,1.48
2022-10-07T10:19:27.464Z,1.30
2022-10-07T10:21:59.100Z,1.08
2022-10-07T10:24:49.877Z,0.90
2022-10-07T10:27:33.493Z,0.90
2022-10-07T10:33:26.171Z,1.10
2022-10-07T10:36:09.029Z,1.00
2022-10-07T10:38:39.730Z,1.17
2022-10-07T10:41:20.892Z,1.02
2022-10-07T10:44:20.395Z,1.23
2022-10-07T10:47:06.146Z,1.23
2022-10-07T10:50:00.724Z,1.08
2022-10-07T10:53:08.039Z,0.98
2022-10-07T10:55:41.468Z,0.93
2022-10-07T11:01:08.515Z,0.80
2022-10-07T11:03:50.516Z,1.13
2022-10-07T11:06:21.823Z,1.10
2022-10-07T11:08:52.029Z,0.60
2022-10-07T11:11:21.598Z,1.00
2022-10-07T11:13:57.287Z,1.02
2022-10-07T11:16:38.648Z,1.05
2022-10-07T11:19:32.194Z,1.02
2022-10-07T11:22:00.799Z,1.08
2022-10-07T11:24:31.325Z,1.17
2022-10-07T11:27:17.555Z,0.98
2022-10-07T11:30:08.199Z,0.70
2022-10-07T11:32:50.429Z,0.93
2022-10-07T11:35:26.601Z,1.10
2022-10-07T11:38:15.153Z,0.93
2022-10-07T11:40:57.895Z,0.93
2022-10-07T11:43:38.177Z,1.00
2022-10-07T11:46:15.276Z,1.00
2022-10-07T11:48:55.001Z,0.80
2022-10-07T11:51:37.783Z,1.10
2022-10-07T11:54:09.661Z,1.17
2022-10-07T11:56:49.193Z,1.20
2022-10-07T11:59:41.690Z,0.80
2022-10-07T12:02:30.633Z,1.00
2022-10-07T12:05:01.902Z,0.93
2022-10-07T12:07:55.265Z,1.10
2022-10-07T12:10:34.173Z,0.98
2022-10-07T12:13:22.032Z,0.80
2022-10-07T12:15:50.801Z,1.30
2022-10-07T12:18:26.106Z,0.75
2022-10-07T12:20:53.424Z,1.17
2022-10-07T12:23:20.758Z,0.75
2022-10-07T12:25:48.804Z,0.98
2022-10-07T12:28:35.920Z,0.90
2022-10-07T12:31:21.775Z,1.38
2022-10-07T12:34:09.189Z,0.88
2022-10-07T12:36:38.557Z,0.77
2022-10-07T12:39:11.856Z,0.82
2022-10-07T12:44:36.154Z,0.98
2022-10-07T12:47:19.290Z,0.77
2022-10-07T12:49:58.766Z,0.80
2022-10-07T12:52:53.032Z,1.05
2022-10-07T12:55:37.332Z,0.93
2022-10-07T12:58:52.376Z,0.80
2022-10-07T13:01:43.054Z,1.08
2022-10-07T13:04:25.185Z,1.00
2022-10-07T13:07:25.702Z,1.60
2022-10-07T13:10:50.161Z,0.95
2022-10-07T13:13:33.750Z,1.15
2022-10-07T13:18:56.967Z,1.20
2022-10-07T13:21:46.534Z,1.63
2022-10-07T13:24:16.725Z,1.27
2022-10-07T13:26:45.979Z,1.38
2022-10-07T13:29:33.026Z,1.15
2022-10-07T13:32:29.788Z,1.27
2022-10-07T13:34:58.825Z,1.83
2022-10-07T13:37:37.070Z,1.30
2022-10-07T13:40:34.044Z,1.17
2022-10-07T13:43:05.028Z,1.33
2022-10-07T13:45:40.461Z,1.35
2022-10-07T13:48:18.037Z,1.30
2022-10-07T13:50:46.269Z,1.20
2022-10-07T13:53:22.999Z,1.10
2022-10-07T13:55:50.737Z,1.30
2022-10-07T13:58:21.269Z,1.48
2022-10-07T14:00:51.222Z,1.33
2022-10-07T14:03:18.830Z,1.20
2022-10-07T14:05:49.053Z,1.40
2022-10-07T14:08:24.745Z,1.27
2022-10-07T14:11:09.872Z,1.38
2022-10-07T14:13:42.515Z,1.45
2022-10-07T14:16:22.509Z,1.80
2022-10-07T14:18:53.874Z,1.60
2022-10-07T14:21:23.590Z,1.20
2022-10-07T14:23:50.862Z,1.30
2022-10-07T14:26:19.031Z,1.42
2022-10-07T14:28:46.360Z,1.38
2022-10-07T14:31:39.618Z,1.50
2022-10-07T14:34:35.918Z,1.25
2022-10-07T14:37:05.285Z,1.30
2022-10-07T14:39:47.608Z,1.02
2022-10-07T14:42:25.479Z,1.10
2022-10-07T14:44:55.405Z,1.02
2022-10-07T14:47:25.099Z,1.02
2022-10-07T14:49:54.255Z,1.00
2022-10-07T14:52:28.290Z,0.98
2022-10-07T14:54:58.831Z,1.02
2022-10-07T14:57:31.185Z,0.73
2022-10-07T14:59:58.838Z,1.02
2022-10-07T15:02:29.238Z,0.90
2022-10-07T15:04:56.452Z,0.98
2022-10-07T15:07:24.261Z,0.80
2022-10-07T15:09:51.435Z,0.80
2022-10-07T15:12:18.609Z,1.00
2022-10-07T15:14:48.494Z,1.15
2022-10-07T15:17:16.270Z,0.90
2022-10-07T15:19:43.580Z,0.95
2022-10-07T15:22:10.778Z,0.75
2022-10-07T15:24:39.848Z,1.10
2022-10-07T15:27:09.757Z,1.15
2022-10-07T15:29:36.949Z,0.90
2022-10-07T15:32:05.391Z,0.98
2022-10-07T15:34:32.599Z,0.88
2022-10-07T15:37:00.714Z,0.90
2022-10-07T15:39:27.985Z,1.10
2022-10-07T15:41:55.725Z,1.05
2022-10-07T15:44:23.045Z,0.95
2022-10-07T15:46:53.541Z,1.00
2022-10-07T15:49:21.023Z,0.88
2022-10-07T15:51:50.667Z,0.95
2022-10-07T15:54:18.436Z,0.93
2022-10-07T15:56:50.225Z,1.23
2022-10-07T15:59:17.470Z,1.10
2022-10-07T16:01:49.209Z,0.75
2022-10-07T16:04:16.396Z,0.93
2022-10-07T16:06:51.590Z,1.17
2022-10-07T16:09:22.863Z,1.13
2022-10-07T16:11:50.870Z,1.33
2022-10-07T16:14:19.036Z,1.00
2022-10-07T16:16:46.681Z,0.77
2022-10-07T16:19:13.889Z,0.90
2022-10-07T16:21:43.103Z,1.10
2022-10-07T16:24:13.354Z,0.70
2022-10-07T16:26:40.587Z,0.95
2022-10-07T16:29:30.944Z,1.17
2022-10-07T16:31:59.336Z,1.10
2022-10-07T16:34:28.187Z,0.80
2022-10-07T16:36:57.006Z,1.25
2022-10-07T16:39:24.869Z,1.00
2022-10-07T16:41:52.570Z,2.17
2022-10-07T16:44:23.627Z,1.58
2022-10-07T16:46:56.445Z,1.25
2022-10-07T16:49:29.330Z,4.30
2022-10-07T16:51:56.950Z,0.98
2022-10-07T16:54:24.992Z,1.13
2022-10-07T16:56:53.502Z,0.70
2022-10-07T16:59:24.334Z,1.05
2022-10-07T17:01:57.406Z,1.00
2022-10-07T17:04:25.701Z,1.15
2022-10-07T17:06:55.205Z,1.40
2022-10-07T17:09:24.616Z,1.50
2022-10-07T17:11:52.224Z,1.92
2022-10-07T17:14:23.954Z,2.50
2022-10-07T17:16:58.686Z,2.87
2022-10-07T17:19:27.882Z,2.38
2022-10-07T17:21:57.166Z,1.50
2022-10-07T17:24:27.168Z,1.08
2022-10-07T17:26:55.123Z,1.45
2022-10-07T17:29:26.337Z,1.30
2022-10-07T17:31:54.489Z,1.60
2022-10-07T17:34:24.521Z,1.42
2022-10-07T17:36:51.790Z,2.00
2022-10-07T17:39:19.907Z,1.42
2022-10-07T17:41:47.731Z,4.20
2022-10-07T17:44:17.522Z,1.83
2022-10-07T17:46:48.912Z,1.40
2022-10-07T17:49:19.309Z,1.27
2022-10-07T17:51:46.963Z,1.15
2022-10-07T17:54:17.161Z,1.38
2022-10-07T17:56:45.171Z,1.92
2022-10-07T17:59:13.705Z,1.95
2022-10-07T18:01:42.082Z,1.58
2022-10-07T18:04:15.515Z,1.85
2022-10-07T18:06:44.357Z,1.42
2022-10-07T18:09:19.360Z,1.92
2022-10-07T18:12:05.329Z,4.97
2022-10-07T18:14:54.279Z,4.05
2022-10-07T18:17:22.857Z,7.38
2022-10-07T18:19:50.343Z,4.97
2022-10-07T18:22:17.625Z,2.17
2022-10-07T18:24:46.036Z,2.35
2022-10-07T18:27:13.311Z,2.10
2022-10-07T18:29:43.078Z,1.88
2022-10-07T18:32:12.557Z,2.50
2022-10-07T18:34:40.248Z,2.55
2022-10-07T18:37:08.477Z,2.20
2022-10-07T18:39:38.935Z,1.50
2022-10-07T18:42:06.965Z,2.60
2022-10-07T18:44:37.164Z,7.28
2022-10-07T18:47:04.585Z,7.78
2022-10-07T18:49:31.821Z,4.05
2022-10-07T18:52:01.381Z,2.70
2022-10-07T18:54:29.008Z,2.03
2022-10-07T18:56:56.671Z,2.65
2022-10-07T18:59:23.932Z,6.70
2022-10-07T19:01:51.468Z,5.80
2022-10-07T19:04:19.924Z,1.80
2022-10-07T19:06:48.081Z,2.53
2022-10-07T19:09:21.220Z,8.13
2022-10-07T19:11:49.240Z,7.10
2022-10-07T19:14:16.961Z,3.88
2022-10-07T19:16:49.447Z,5.00
2022-10-07T19:19:19.466Z,13.63
2022-10-07T19:21:50.550Z,4.22
2022-10-07T19:24:21.176Z,2.22
2022-10-07T19:26:53.989Z,7.88
2022-10-07T19:29:21.718Z,2.20
2022-10-07T19:31:51.754Z,5.15
2022-10-07T19:34:22.500Z,6.80
2022-10-07T19:36:50.760Z,2.67
2022-10-07T19:39:24.413Z,2.58
2022-10-07T19:41:54.241Z,3.85
2022-10-07T19:44:22.235Z,5.80
2022-10-07T19:46:54.302Z,6.25
2022-10-07T19:49:23.843Z,2.83
2022-10-07T19:51:51.510Z,1.75
2022-10-07T19:54:19.205Z,1.90
2022-10-07T19:56:47.263Z,3.10
2022-10-07T19:59:14.752Z,1.70
2022-10-07T20:01:44.197Z,1.73
2022-10-07T20:04:22.588Z,1.60
2022-10-07T20:06:50.091Z,1.83
2022-10-07T20:09:21.336Z,1.65
2022-10-07T20:11:48.563Z,1.63
2022-10-07T20:14:18.918Z,1.83
2022-10-07T20:16:46.137Z,2.30
2022-10-07T20:19:16.415Z,2.05
2022-10-07T20:21:43.629Z,2.30
2022-10-07T20:24:15.208Z,2.85
2022-10-07T20:26:44.160Z,1.73
2022-10-07T20:29:16.177Z,2.13
2022-10-07T20:31:44.541Z,1.48
2022-10-07T20:34:16.145Z,1.35
2022-10-07T20:36:44.188Z,2.20
2022-10-07T20:39:38.846Z,1.90
2022-10-07T20:42:22.575Z,1.58
2022-10-07T20:44:53.050Z,1.80
2022-10-07T20:47:21.949Z,1.70
2022-10-07T20:49:51.259Z,1.58
2022-10-07T20:52:21.089Z,1.65
2022-10-07T20:54:49.213Z,1.67
2022-10-07T20:57:19.413Z,1.20
2022-10-07T20:59:47.117Z,1.63
2022-10-07T21:02:18.750Z,1.75
2022-10-07T21:04:48.006Z,1.80
2022-10-07T21:07:18.629Z,1.98
2022-10-07T21:09:47.642Z,1.35
2022-10-07T21:12:17.649Z,1.60
2022-10-07T21:14:47.811Z,1.85
2022-10-07T21:17:15.576Z,1.50
2022-10-07T21:19:43.330Z,1.92
2022-10-07T21:22:10.721Z,1.25
2022-10-07T21:24:38.216Z,1.92
2022-10-07T21:27:07.128Z,1.63
2022-10-07T21:29:40.113Z,1.67
2022-10-07T21:34:37.489Z,1.52
2022-10-07T21:37:04.901Z,1.95
2022-10-07T21:39:32.538Z,1.98
2022-10-07T21:42:02.107Z,1.65
2022-10-07T21:44:33.467Z,1.67
2022-10-07T21:47:05.022Z,1.55
2022-10-07T21:49:35.293Z,1.52
2022-10-07T21:52:02.926Z,1.70
2022-10-07T21:54:30.400Z,1.63
2022-10-07T21:56:57.981Z,2.17
2022-10-07T21:59:27.264Z,1.73
2022-10-07T22:01:57.953Z,1.80
2022-10-07T22:04:25.191Z,1.75
2022-10-07T22:07:11.253Z,1.75
2022-10-07T22:09:38.446Z,1.70
2022-10-07T22:12:08.859Z,2.08
2022-10-07T22:14:40.050Z,1.58
2022-10-07T22:17:12.837Z,1.83
2022-10-07T22:19:40.597Z,1.90
2022-10-07T22:22:08.004Z,1.75
2022-10-07T22:24:35.176Z,2.00
2022-10-07T22:27:03.524Z,2.05
2022-10-07T22:29:33.410Z,1.77
2022-10-07T22:32:03.856Z,1.63
2022-10-07T22:34:49.529Z,1.50
2022-10-07T22:37:16.765Z,2.10
2022-10-07T22:39:44.094Z,2.00
2022-10-07T22:42:11.498Z,1.88
2022-10-07T22:44:39.142Z,1.70
2022-10-07T22:47:08.716Z,1.90
2022-10-07T22:49:36.361Z,1.80
2022-10-07T22:52:06.003Z,1.45
2022-10-07T22:54:33.222Z,1.48
2022-10-07T22:57:00.952Z,1.70
2022-10-07T22:59:28.171Z,1.58
2022-10-07T23:01:55.360Z,1.63
2022-10-07T23:04:22.634Z,1.60
2022-10-07T23:06:52.928Z,1.40
2022-10-07T23:09:21.007Z,1.52
2022-10-07T23:11:48.648Z,1.60
2022-10-07T23:14:16.034Z,1.85
2022-10-07T23:16:44.259Z,1.80
2022-10-07T23:19:11.810Z,1.65
2022-10-07T23:21:41.191Z,1.60
2022-10-07T23:24:09.997Z,1.67
2022-10-07T23:26:37.763Z,1.73
2022-10-07T23:29:08.577Z,1.58
2022-10-07T23:31:36.391Z,1.45
2022-10-07T23:34:06.327Z,1.65
2022-10-07T23:36:34.716Z,1.70
2022-10-07T23:39:02.874Z,1.52
2022-10-07T23:41:36.151Z,1.58
2022-10-07T23:44:04.019Z,1.63
2022-10-07T23:46:33.850Z,1.33
2022-10-07T23:49:04.075Z,1.60
2022-10-07T23:51:32.372Z,1.60
2022-10-07T23:54:01.340Z,1.60
2022-10-07T23:56:29.577Z,1.30
2022-10-07T23:58:57.018Z,1.40
